Crown Topaz — 3FAS9 — position and weather

sailwx.info

Track history (hours):
 
Tides and Currents Weather Stations Pressure Air Temp Water Temp Dewpoint Dewpoint Depression Visibility Wind Speed Wind Dir Waves Ship Positions

Crown Topaz

Last reported at 2016-Aug-31 04:32 UTC. Time now 2016-Aug-31 06:07 UTC.
Position N 51°16' E 004°23'.

Length 152 m; draft 8 m.

Type: Cargo ship. MMSI: 357144000.

Date/timePositionNaut miles runAvg speedWind from/ knotsBaromVisibWave heightAir tempDewpointWater temp
2016-Aug-31 04:32N 51°16' E 004°23'0 0.0
2016-Aug-31 03:32N 51°16' E 004°23'0 0.0
2016-Aug-31 02:32N 51°16' E 004°23'0 0.0
2016-Aug-31 01:32N 51°16' E 004°23'0 0.0
2016-Aug-31 00:32N 51°16' E 004°23'0 0.0
2016-Aug-30 23:32N 51°16' E 004°23'0 0.0
2016-Aug-30 22:32N 51°16' E 004°23'0 0.0
2016-Aug-30 21:32N 51°16' E 004°23'0 0.0
2016-Aug-30 20:32N 51°16' E 004°23'0 0.0
2016-Aug-30 19:29N 51°16' E 004°23'0 0.0
2016-Aug-30 18:32N 51°16' E 004°23'0 0.0
2016-Aug-30 17:32N 51°16' E 004°23'0 0.0
2016-Aug-30 16:32N 51°16' E 004°23'0 0.0
2016-Aug-30 15:32N 51°16' E 004°23'0 0.0
2016-Aug-30 14:29N 51°16' E 004°23'0 0.0
2016-Aug-30 13:32N 51°16' E 004°23'0 0.0
2016-Aug-30 12:32N 51°16' E 004°23'0 0.0
2016-Aug-30 11:32N 51°16' E 004°23'0 0.0
2016-Aug-30 10:32N 51°16' E 004°23'0 0.0
2016-Aug-30 09:32N 51°16' E 004°23'0 0.0
2016-Aug-30 08:32N 51°16' E 004°23'0 0.0
2016-Aug-30 07:32N 51°16' E 004°23'0 0.0
2016-Aug-30 06:32N 51°16' E 004°23'0 0.0
2016-Aug-30 05:32N 51°16' E 004°23'0 0.0
2016-Aug-30 04:32N 51°16' E 004°23'0 0.0
2016-Aug-30 03:32N 51°16' E 004°23'0 0.0
2016-Aug-30 02:32N 51°16' E 004°23'0 0.0
2016-Aug-30 01:32N 51°16' E 004°23'0 0.0
2016-Aug-30 00:32N 51°16' E 004°23'0 0.0
2016-Aug-29 23:32N 51°16' E 004°23'0 0.0
2016-Aug-29 22:32N 51°16' E 004°23'0 0.0
2016-Aug-29 21:32N 51°16' E 004°23'0 0.0
2016-Aug-29 20:32N 51°16' E 004°23'0 0.0
2016-Aug-29 19:32N 51°16' E 004°23'0 0.0
2016-Aug-29 18:32N 51°16' E 004°23'0 0.0
2016-Aug-29 17:32N 51°16' E 004°23'0 0.0
2016-Aug-29 16:32N 51°16' E 004°23'0 0.0
2016-Aug-29 15:32N 51°16' E 004°23'0 0.0
2016-Aug-29 14:32N 51°16' E 004°23'0 0.0
2016-Aug-29 13:32N 51°16' E 004°23'0 0.0
2016-Aug-29 12:32N 51°16' E 004°23'0 0.0
2016-Aug-29 11:32N 51°16' E 004°23'0 0.0
2016-Aug-29 10:32N 51°16' E 004°23'0 0.0
2016-Aug-29 09:32N 51°16' E 004°23'0 0.0
2016-Aug-29 08:33N 51°16' E 004°23'2 2.0
2016-Aug-29 07:33N 51°17' E 004°20'0 0.1
2016-Aug-29 06:34N 51°17' E 004°20'5 5.3
2016-Aug-29 05:34N 51°21' E 004°15'8 8.1
2016-Aug-29 04:34N 51°23' E 004°02'6 5.7
2016-Aug-29 03:34N 51°21' E 003°54'8 8.1
2016-Aug-29 02:34N 51°25' E 003°42'9 8.9
2016-Aug-29 01:34N 51°25' E 003°28'1313.2
2016-Aug-29 00:33N 51°24' E 003°07'1313.2
2016-Aug-28 23:33N 51°22' E 002°46'1010.2
2016-Aug-28 22:33N 51°22' E 002°30'1818.2
2016-Aug-28 21:34N 51°13' E 002°04'1817.6
2016-Aug-28 20:34N 51°02' E 001°42'6716.6
2016-Aug-28 16:33N 50°24' E 000°16'1817.8
2016-Aug-28 15:34N 50°26' W 000°12'1818.1
2016-Aug-28 14:34N 50°34' W 000°38'1515.1
2016-Aug-28 13:34N 50°42' W 000°58'9 8.7
2016-Aug-28 12:34N 50°49' W 001°07'1 0.6
2016-Aug-28 11:31N 50°49' W 001°06'0 0.0
2016-Aug-28 10:31N 50°49' W 001°06'0 0.0
2016-Aug-28 09:31N 50°49' W 001°06'0 0.0
2016-Aug-28 08:31N 50°49' W 001°06'0 0.0
2016-Aug-28 07:34N 50°49' W 001°06'0 0.0
2016-Aug-28 06:31N 50°49' W 001°06'0 0.0
2016-Aug-28 05:31N 50°49' W 001°06'0 0.0
2016-Aug-28 04:34N 50°49' W 001°06'0 0.0
2016-Aug-28 03:31N 50°49' W 001°06'0 0.0
2016-Aug-28 02:31N 50°49' W 001°06'0 0.0
2016-Aug-28 01:34N 50°49' W 001°06'0 0.0
2016-Aug-28 00:31N 50°49' W 001°06'0 0.0
2016-Aug-27 23:31N 50°49' W 001°06'0 0.0
2016-Aug-27 22:31N 50°49' W 001°06'0 0.0
2016-Aug-27 21:31N 50°49' W 001°06'0 0.0
2016-Aug-27 20:34N 50°49' W 001°06'0 0.0
2016-Aug-27 19:31N 50°49' W 001°06'0 0.0
2016-Aug-27 18:31N 50°49' W 001°06'0 0.0
2016-Aug-27 17:31N 50°49' W 001°06'0 0.0
2016-Aug-27 16:31N 50°49' W 001°06'1 0.7
2016-Aug-27 15:33N 50°49' W 001°07'9 8.8
2016-Aug-27 14:33N 50°42' W 000°58'1212.4
2016-Aug-27 13:33N 50°30' W 001°05'5317.3
2016-Aug-27 10:30N 50°14' W 002°25'1516.1
2016-Aug-27 09:33N 50°10' W 002°47'1616.3
2016-Aug-27 08:34N 50°05' W 003°11'1616.4
2016-Aug-27 07:33N 49°60' W 003°36'1716.6
2016-Aug-27 06:33N 49°54' W 004°00'3416.8
2016-Aug-27 04:33N 49°45' W 004°50'1716.6
2016-Aug-27 03:32N 49°38' W 005°14'1717.3
2016-Aug-27 02:33N 49°34' W 005°39'1817.7
2016-Aug-27 01:34N 49°30' W 006°06'1818.0
2016-Aug-27 00:33N 49°24' W 006°33'2018.0
2016-Aug-26 23:26N 49°20' W 007°03'4318.2
2016-Aug-26 21:04N 49°13' W 008°08'1018.2
2016-Aug-26 20:29N 49°11' W 008°24'  
Track history (hours):
 
Tides and Currents Weather Stations Pressure Air Temp Water Temp Dewpoint Dewpoint Depression Visibility Wind Speed Wind Dir Waves Ship Positions

Crown Topaz

Last reported at 2016-Aug-31 04:32 UTC. Time now 2016-Aug-31 06:07 UTC.
Position N 51°16' E 004°23'.

Length 152 m; draft 8 m.

Type: Cargo ship. MMSI: 357144000.

Date/timePositionNaut miles runAvg speedWind from/ knotsBaromVisibWave heightAir tempDewpointWater temp
2016-Aug-31 04:32N 51°16' E 004°23'0 0.0
2016-Aug-31 03:32N 51°16' E 004°23'0 0.0
2016-Aug-31 02:32N 51°16' E 004°23'0 0.0
2016-Aug-31 01:32N 51°16' E 004°23'0 0.0
2016-Aug-31 00:32N 51°16' E 004°23'0 0.0
2016-Aug-30 23:32N 51°16' E 004°23'0 0.0
2016-Aug-30 22:32N 51°16' E 004°23'0 0.0
2016-Aug-30 21:32N 51°16' E 004°23'0 0.0
2016-Aug-30 20:32N 51°16' E 004°23'0 0.0
2016-Aug-30 19:29N 51°16' E 004°23'0 0.0
2016-Aug-30 18:32N 51°16' E 004°23'0 0.0
2016-Aug-30 17:32N 51°16' E 004°23'0 0.0
2016-Aug-30 16:32N 51°16' E 004°23'0 0.0
2016-Aug-30 15:32N 51°16' E 004°23'0 0.0
2016-Aug-30 14:29N 51°16' E 004°23'0 0.0
2016-Aug-30 13:32N 51°16' E 004°23'0 0.0
2016-Aug-30 12:32N 51°16' E 004°23'0 0.0
2016-Aug-30 11:32N 51°16' E 004°23'0 0.0
2016-Aug-30 10:32N 51°16' E 004°23'0 0.0
2016-Aug-30 09:32N 51°16' E 004°23'0 0.0
2016-Aug-30 08:32N 51°16' E 004°23'0 0.0
2016-Aug-30 07:32N 51°16' E 004°23'0 0.0
2016-Aug-30 06:32N 51°16' E 004°23'0 0.0
2016-Aug-30 05:32N 51°16' E 004°23'0 0.0
2016-Aug-30 04:32N 51°16' E 004°23'0 0.0
2016-Aug-30 03:32N 51°16' E 004°23'0 0.0
2016-Aug-30 02:32N 51°16' E 004°23'0 0.0
2016-Aug-30 01:32N 51°16' E 004°23'0 0.0
2016-Aug-30 00:32N 51°16' E 004°23'0 0.0
2016-Aug-29 23:32N 51°16' E 004°23'0 0.0
2016-Aug-29 22:32N 51°16' E 004°23'0 0.0
2016-Aug-29 21:32N 51°16' E 004°23'0 0.0
2016-Aug-29 20:32N 51°16' E 004°23'0 0.0
2016-Aug-29 19:32N 51°16' E 004°23'0 0.0
2016-Aug-29 18:32N 51°16' E 004°23'0 0.0
2016-Aug-29 17:32N 51°16' E 004°23'0 0.0
2016-Aug-29 16:32N 51°16' E 004°23'0 0.0
2016-Aug-29 15:32N 51°16' E 004°23'0 0.0
2016-Aug-29 14:32N 51°16' E 004°23'0 0.0
2016-Aug-29 13:32N 51°16' E 004°23'0 0.0
2016-Aug-29 12:32N 51°16' E 004°23'0 0.0
2016-Aug-29 11:32N 51°16' E 004°23'0 0.0
2016-Aug-29 10:32N 51°16' E 004°23'0 0.0
2016-Aug-29 09:32N 51°16' E 004°23'0 0.0
2016-Aug-29 08:33N 51°16' E 004°23'2 2.0
2016-Aug-29 07:33N 51°17' E 004°20'0 0.1
2016-Aug-29 06:34N 51°17' E 004°20'5 5.3
2016-Aug-29 05:34N 51°21' E 004°15'8 8.1
2016-Aug-29 04:34N 51°23' E 004°02'6 5.7
2016-Aug-29 03:34N 51°21' E 003°54'8 8.1
2016-Aug-29 02:34N 51°25' E 003°42'9 8.9
2016-Aug-29 01:34N 51°25' E 003°28'1313.2
2016-Aug-29 00:33N 51°24' E 003°07'1313.2
2016-Aug-28 23:33N 51°22' E 002°46'1010.2
2016-Aug-28 22:33N 51°22' E 002°30'1818.2
2016-Aug-28 21:34N 51°13' E 002°04'1817.6
2016-Aug-28 20:34N 51°02' E 001°42'6716.6
2016-Aug-28 16:33N 50°24' E 000°16'1817.8
2016-Aug-28 15:34N 50°26' W 000°12'1818.1
2016-Aug-28 14:34N 50°34' W 000°38'1515.1
2016-Aug-28 13:34N 50°42' W 000°58'9 8.7
2016-Aug-28 12:34N 50°49' W 001°07'1 0.6
2016-Aug-28 11:31N 50°49' W 001°06'0 0.0
2016-Aug-28 10:31N 50°49' W 001°06'0 0.0
2016-Aug-28 09:31N 50°49' W 001°06'0 0.0
2016-Aug-28 08:31N 50°49' W 001°06'0 0.0
2016-Aug-28 07:34N 50°49' W 001°06'0 0.0
2016-Aug-28 06:31N 50°49' W 001°06'0 0.0
2016-Aug-28 05:31N 50°49' W 001°06'0 0.0
2016-Aug-28 04:34N 50°49' W 001°06'0 0.0
2016-Aug-28 03:31N 50°49' W 001°06'0 0.0
2016-Aug-28 02:31N 50°49' W 001°06'0 0.0
2016-Aug-28 01:34N 50°49' W 001°06'0 0.0
2016-Aug-28 00:31N 50°49' W 001°06'0 0.0
2016-Aug-27 23:31N 50°49' W 001°06'0 0.0
2016-Aug-27 22:31N 50°49' W 001°06'0 0.0
2016-Aug-27 21:31N 50°49' W 001°06'0 0.0
2016-Aug-27 20:34N 50°49' W 001°06'0 0.0
2016-Aug-27 19:31N 50°49' W 001°06'0 0.0
2016-Aug-27 18:31N 50°49' W 001°06'0 0.0
2016-Aug-27 17:31N 50°49' W 001°06'0 0.0
2016-Aug-27 16:31N 50°49' W 001°06'1 0.7
2016-Aug-27 15:33N 50°49' W 001°07'9 8.8
2016-Aug-27 14:33N 50°42' W 000°58'1212.4
2016-Aug-27 13:33N 50°30' W 001°05'5317.3
2016-Aug-27 10:30N 50°14' W 002°25'1516.1
2016-Aug-27 09:33N 50°10' W 002°47'1616.3
2016-Aug-27 08:34N 50°05' W 003°11'1616.4
2016-Aug-27 07:33N 49°60' W 003°36'1716.6
2016-Aug-27 06:33N 49°54' W 004°00'3416.8
2016-Aug-27 04:33N 49°45' W 004°50'1716.6
2016-Aug-27 03:32N 49°38' W 005°14'1717.3
2016-Aug-27 02:33N 49°34' W 005°39'1817.7
2016-Aug-27 01:34N 49°30' W 006°06'1818.0
2016-Aug-27 00:33N 49°24' W 006°33'2018.0
2016-Aug-26 23:26N 49°20' W 007°03'4318.2
2016-Aug-26 21:04N 49°13' W 008°08'1018.2
2016-Aug-26 20:29N 49°11' W 008°24'  

Dump ship's entire track history